Map

Track Data

SID SEASON NUMBER BASIN SUBBASIN NAME ISO_TIME NATURE LAT LON WMO_WIND WMO_PRES WMO_AGENCY TRACK_TYPE DIST2LAND LANDFALL IFLAG USA_AGENCY USA_ATCF_ID USA_LAT USA_LON USA_RECORD USA_STATUS USA_WIND USA_PRES USA_SSHS USA_R34_NE USA_R34_SE USA_R34_SW USA_R34_NW USA_R50_NE USA_R50_SE USA_R50_SW USA_R50_NW USA_R64_NE USA_R64_SE USA_R64_SW USA_R64_NW USA_POCI USA_ROCI USA_RMW USA_EYE TOKYO_LAT TOKYO_LON TOKYO_GRADE TOKYO_WIND TOKYO_PRES TOKYO_R50_DIR TOKYO_R50_LONG TOKYO_R50_SHORT TOKYO_R30_DIR TOKYO_R30_LONG TOKYO_R30_SHORT TOKYO_LAND CMA_LAT CMA_LON CMA_CAT CMA_WIND CMA_PRES HKO_LAT HKO_LON HKO_CAT HKO_WIND HKO_PRES NEWDELHI_LAT NEWDELHI_LON NEWDELHI_GRADE NEWDELHI_WIND NEWDELHI_PRES NEWDELHI_CI NEWDELHI_DP NEWDELHI_POCI REUNION_LAT REUNION_LON REUNION_TYPE REUNION_WIND REUNION_PRES REUNION_TNUM REUNION_CI REUNION_RMW REUNION_R34_NE REUNION_R34_SE REUNION_R34_SW REUNION_R34_NW REUNION_R50_NE REUNION_R50_SE REUNION_R50_SW REUNION_R50_NW REUNION_R64_NE REUNION_R64_SE REUNION_R64_SW REUNION_R64_NW BOM_LAT BOM_LON BOM_TYPE BOM_WIND BOM_PRES BOM_TNUM BOM_CI BOM_RMW BOM_R34_NE BOM_R34_SE BOM_R34_SW BOM_R34_NW BOM_R50_NE BOM_R50_SE BOM_R50_SW BOM_R50_NW BOM_R64_NE BOM_R64_SE BOM_R64_SW BOM_R64_NW BOM_ROCI BOM_POCI BOM_EYE BOM_POS_METHOD BOM_PRES_METHOD NADI_LAT NADI_LON NADI_CAT NADI_WIND NADI_PRES WELLINGTON_LAT WELLINGTON_LON WELLINGTON_WIND WELLINGTON_PRES DS824_LAT DS824_LON DS824_STAGE DS824_WIND DS824_PRES TD9636_LAT TD9636_LON TD9636_STAGE TD9636_WIND TD9636_PRES TD9635_LAT TD9635_LON TD9635_WIND TD9635_PRES TD9635_ROCI NEUMANN_LAT NEUMANN_LON NEUMANN_CLASS NEUMANN_WIND NEUMANN_PRES MLC_LAT MLC_LON MLC_CLASS MLC_WIND MLC_PRES USA_GUST BOM_GUST BOM_GUST_PER REUNION_GUST REUNION_GUST_PER USA_SEAHGT USA_SEARAD_NE USA_SEARAD_SE USA_SEARAD_SW USA_SEARAD_NW STORM_SPEED STORM_DIR
1890153N19069 1890 14 NI AS NOT_NAMED 1890-06-02 00:00:00 TS 18.9000 69.0000 main 273 270 _________O____ -1 18.9000 69.0000 TC 64 4 310
1890153N19069 1890 14 NI AS NOT_NAMED 1890-06-02 03:00:00 TS 19.0334 68.8334 main 276 263 _________PO___ -1 19.1001 68.7501 TC 64 18.9000 69.0000 4 5 310
1890153N19069 1890 14 NI AS NOT_NAMED 1890-06-02 06:00:00 TS 19.2239 68.5971 main 270 261 _________OP___ -1 19.3000 68.5000 TC 64 19.1098 68.7429 4 6 310
1890153N19069 1890 14 NI AS NOT_NAMED 1890-06-02 09:00:00 TS 19.4209 68.3521 main 267 266 _________PP___ -1 19.5000 68.2499 TC 64 19.3155 68.4883 4 6 310
1890153N19069 1890 14 NI AS NOT_NAMED 1890-06-02 12:00:00 TS 19.6067 68.1198 main 274 266 _________OP___ -1 19.7000 68.0000 TC 64 19.5134 68.2396 4 6 310
1890153N19069 1890 14 NI AS NOT_NAMED 1890-06-02 15:00:00 TS 19.8037 67.8750 main 274 274 _________PO___ -1 19.9075 67.7500 TC 64 19.7000 68.0000 4 6 310
1890153N19069 1890 14 NI AS NOT_NAMED 1890-06-02 18:00:00 TS 19.9869 67.6349 main 281 281 _________OP___ -1 20.1000 67.5000 TC 64 19.8737 67.7698 4 6 307
1890153N19069 1890 14 NI AS NOT_NAMED 1890-06-02 21:00:00 TS 20.1422 67.4008 main 289 281 _________PP___ -1 20.2424 67.2648 TC 64 20.0420 67.5367 4 6 305
1890153N19069 1890 14 NI AS NOT_NAMED 1890-06-03 00:00:00 TS 20.3071 67.1427 main 291 282 _________OP___ -1 20.4000 67.0000 TC 64 20.2143 67.2853 4 7 306
1890153N19069 1890 14 NI AS NOT_NAMED 1890-06-03 03:00:00 TS 20.5212 66.8363 main 296 288 _________PO___ -1 20.6425 66.6726 TC 64 20.4000 67.0000 4 8 306
1890153N19069 1890 14 NI AS NOT_NAMED 1890-06-03 06:00:00 TS 20.7594 66.4806 main 299 299 _________OP___ -1 20.9000 66.3000 TC 64 20.6188 66.6611 4 8 303
1890153N19069 1890 14 NI AS NOT_NAMED 1890-06-03 09:00:00 TS 20.9788 66.0938 main 323 323 _________PP___ -1 21.1075 65.8999 TC 64 20.8501 66.2878 4 9 301
1890153N19069 1890 14 NI AS NOT_NAMED 1890-06-03 12:00:00 TS 21.1906 65.6977 main 350 346 _________OP___ -1 21.3000 65.5000 TC 64 21.0813 65.8955 4 8 301
1890153N19069 1890 14 NI AS NOT_NAMED 1890-06-03 15:00:00 TS 21.4037 65.3250 main 357 355 _________PO___ -1 21.5073 65.1499 TC 64 21.3000 65.5000 4 8 301
1890153N19069 1890 14 NI AS NOT_NAMED 1890-06-03 18:00:00 TS 21.5883 64.9742 main 362 362 _________OP___ -1 21.7000 64.8000 TC 64 21.4765 65.1484 4 7 297
1890153N19069 1890 14 NI AS NOT_NAMED 1890-06-03 21:00:00 TS 21.7419 64.6079 main 385 368 _________PP___ -1 21.8423 64.4222 TC 64 21.6415 64.7936 4 8 294
1890153N19069 1890 14 NI AS NOT_NAMED 1890-06-04 00:00:00 TS 21.9054 64.2085 main 369 347 _________OP___ -1 22.0000 64.0000 TC 64 21.8107 64.4170 4 9 296
1890153N19069 1890 14 NI AS NOT_NAMED 1890-06-04 03:00:00 TS 22.1175 63.7612 main 347 324 _________PO___ -1 22.2349 63.5225 TC 64 22.0000 64.0000 4 10 298
1890153N19069 1890 14 NI AS NOT_NAMED 1890-06-04 06:00:00 TS 22.3640 63.2691 main 313 282 _________OP___ -1 22.5000 63.0000 TC 64 22.2281 63.5382 4 11 298
1890153N19069 1890 14 NI AS NOT_NAMED 1890-06-04 09:00:00 TS 22.6133 62.7522 main 282 238 _________PP___ -1 22.7497 62.4722 TC 64 22.4768 63.0321 4 11 297
1890153N19069 1890 14 NI AS NOT_NAMED 1890-06-04 12:00:00 TS 22.8686 62.1924 main 238 200 _________OP___ -1 23.0000 61.9000 TC 64 22.7372 62.4849 4 12 295
1890153N19069 1890 14 NI AS NOT_NAMED 1890-06-04 15:00:00 TS 23.1250 61.5824 main 200 158 _________PO___ -1 23.2499 61.2648 TC 64 23.0000 61.9000 4 12 294
1890153N19069 1890 14 NI AS NOT_NAMED 1890-06-04 18:00:00 TS 23.3616 60.9895 main 166 142 _________OP___ -1 23.5000 60.6000 TC 64 23.2579 61.2817 4 12 293
1890153N19069 1890 14 NI AS NOT_NAMED 1890-06-04 21:00:00 TS 23.6061 60.3604 main 145 105 _________PP___ -1 23.7504 59.9455 TC 64 23.5099 60.6370 4 12 293
1890153N19069 1890 14 NI AS NOT_NAMED 1890-06-05 00:00:00 TS 23.8380 59.7491 main 97 75 _________OP___ -1 24.0000 59.3000 TC 64 23.7570 59.9737 4 10 292
1890153N19069 1890 14 NI AS NOT_NAMED 1890-06-05 03:00:00 NR 24.0000 59.3000 main 75 __________O___ -1 TC 24.0000 59.3000 4 9 291

About IBTrACS Database

This database is a web-friendly format of International Best Track Archive for Climate Stewardship (IBTrACS), a global best track data archive curated by NOAA dating back to 1842.

Updated: 2021-12-06